sensor_id;sensor_type;location;lat;lon;timestamp;pressure;altitude;pressure_sealevel;temperature;humidity
59272;BME280;45043;51.068;7.026;2023-01-29T00:01:17;101855.81;;;-3.64;54.88
59272;BME280;45043;51.068;7.026;2023-01-29T00:04:17;101852.44;;;-3.66;54.85
59272;BME280;45043;51.068;7.026;2023-01-29T00:07:18;101854.25;;;-3.68;54.99
59272;BME280;45043;51.068;7.026;2023-01-29T00:10:18;101852.50;;;-3.68;54.97
59272;BME280;45043;51.068;7.026;2023-01-29T00:13:19;101846.59;;;-3.71;55.13
59272;BME280;45043;51.068;7.026;2023-01-29T00:16:19;101849.34;;;-3.74;54.91
59272;BME280;45043;51.068;7.026;2023-01-29T00:19:20;101846.13;;;-3.80;55.10
59272;BME280;45043;51.068;7.026;2023-01-29T00:22:20;101828.50;;;-3.92;55.19
59272;BME280;45043;51.068;7.026;2023-01-29T00:25:21;101839.66;;;-3.90;54.83
59272;BME280;45043;51.068;7.026;2023-01-29T00:28:21;101843.16;;;-3.91;55.51
59272;BME280;45043;51.068;7.026;2023-01-29T00:31:24;101838.09;;;-3.94;55.09
59272;BME280;45043;51.068;7.026;2023-01-29T00:34:25;101832.16;;;-3.96;55.05
59272;BME280;45043;51.068;7.026;2023-01-29T00:37:25;101820.91;;;-3.96;55.05
59272;BME280;45043;51.068;7.026;2023-01-29T00:40:26;101820.19;;;-4.00;55.71
59272;BME280;45043;51.068;7.026;2023-01-29T00:43:27;101817.91;;;-4.06;55.16
59272;BME280;45043;51.068;7.026;2023-01-29T00:46:46;101816.34;;;-4.10;54.93
59272;BME280;45043;51.068;7.026;2023-01-29T00:49:46;101816.63;;;-4.16;55.61
59272;BME280;45043;51.068;7.026;2023-01-29T00:52:47;101816.63;;;-4.16;55.20
59272;BME280;45043;51.068;7.026;2023-01-29T00:55:48;101819.09;;;-4.13;55.75
59272;BME280;45043;51.068;7.026;2023-01-29T00:58:49;101823.34;;;-4.12;55.49
59272;BME280;45043;51.068;7.026;2023-01-29T01:01:49;101819.84;;;-4.11;55.18
59272;BME280;45043;51.068;7.026;2023-01-29T01:05:11;101820.00;;;-4.14;56.11
59272;BME280;45043;51.068;7.026;2023-01-29T01:08:17;101815.66;;;-4.14;56.27
59272;BME280;45043;51.068;7.026;2023-01-29T01:11:37;101816.53;;;-4.15;55.76
59272;BME280;45043;51.068;7.026;2023-01-29T01:14:38;101818.28;;;-4.15;56.39
59272;BME280;45043;51.068;7.026;2023-01-29T01:17:42;101807.78;;;-4.12;55.43
59272;BME280;45043;51.068;7.026;2023-01-29T01:20:42;101811.28;;;-4.13;55.40
59272;BME280;45043;51.068;7.026;2023-01-29T01:23:43;101802.88;;;-4.18;56.01
59272;BME280;45043;51.068;7.026;2023-01-29T01:26:43;101813.31;;;-4.20;56.43
59272;BME280;45043;51.068;7.026;2023-01-29T01:29:47;101814.88;;;-4.16;56.04
59272;BME280;45043;51.068;7.026;2023-01-29T01:32:47;101824.53;;;-4.19;56.42
59272;BME280;45043;51.068;7.026;2023-01-29T01:35:49;101830.63;;;-4.20;56.06
59272;BME280;45043;51.068;7.026;2023-01-29T01:38:49;101830.72;;;-4.22;56.05
59272;BME280;45043;51.068;7.026;2023-01-29T01:41:50;101832.44;;;-4.22;56.62
59272;BME280;45043;51.068;7.026;2023-01-29T01:45:01;101822.06;;;-4.22;56.43
59272;BME280;45043;51.068;7.026;2023-01-29T01:48:11;101806.50;;;-4.22;56.28
59272;BME280;45043;51.068;7.026;2023-01-29T01:51:14;101810.94;;;-4.24;56.03
59272;BME280;45043;51.068;7.026;2023-01-29T01:54:24;101803.16;;;-4.24;55.79
59272;BME280;45043;51.068;7.026;2023-01-29T01:57:26;101798.16;;;-4.29;56.21
59272;BME280;45043;51.068;7.026;2023-01-29T02:00:29;101777.75;;;-4.37;56.08
59272;BME280;45043;51.068;7.026;2023-01-29T02:03:30;101784.03;;;-4.42;56.58
59272;BME280;45043;51.068;7.026;2023-01-29T02:06:51;101780.09;;;-4.51;55.71
59272;BME280;45043;51.068;7.026;2023-01-29T02:10:14;101788.94;;;-4.55;56.73
59272;BME280;45043;51.068;7.026;2023-01-29T02:13:15;101785.63;;;-4.59;55.98
59272;BME280;45043;51.068;7.026;2023-01-29T02:16:22;101790.88;;;-4.60;56.91
59272;BME280;45043;51.068;7.026;2023-01-29T02:19:38;101798.72;;;-4.62;56.36
59272;BME280;45043;51.068;7.026;2023-01-29T02:22:59;101802.22;;;-4.63;56.36
59272;BME280;45043;51.068;7.026;2023-01-29T02:29:33;101802.22;;;-4.63;56.53
59272;BME280;45043;51.068;7.026;2023-01-29T02:36:14;101805.00;;;-4.67;57.07
59272;BME280;45043;51.068;7.026;2023-01-29T02:39:47;101805.13;;;-4.70;56.45
59272;BME280;45043;51.068;7.026;2023-01-29T02:42:53;101808.63;;;-4.71;56.37
59272;BME280;45043;51.068;7.026;2023-01-29T02:46:04;101816.59;;;-4.76;57.24
59272;BME280;45043;51.068;7.026;2023-01-29T02:49:23;101820.16;;;-4.79;57.31
59272;BME280;45043;51.068;7.026;2023-01-29T02:52:43;101824.59;;;-4.81;57.16
59272;BME280;45043;51.068;7.026;2023-01-29T02:55:55;101829.66;;;-4.78;56.77
59272;BME280;45043;51.068;7.026;2023-01-29T02:59:06;101825.34;;;-4.79;57.15
59272;BME280;45043;51.068;7.026;2023-01-29T03:02:13;101839.22;;;-4.80;57.08
59272;BME280;45043;51.068;7.026;2023-01-29T03:05:27;101842.78;;;-4.82;57.81
59272;BME280;45043;51.068;7.026;2023-01-29T03:08:35;101851.94;;;-4.73;58.01
59272;BME280;45043;51.068;7.026;2023-01-29T03:11:47;101839.50;;;-4.65;57.25
59272;BME280;45043;51.068;7.026;2023-01-29T03:14:57;101832.34;;;-4.60;56.96
59272;BME280;45043;51.068;7.026;2023-01-29T03:18:15;101824.31;;;-4.54;57.76
59272;BME280;45043;51.068;7.026;2023-01-29T03:21:42;101818.22;;;-4.53;57.40
59272;BME280;45043;51.068;7.026;2023-01-29T03:24:58;101814.88;;;-4.55;56.83
59272;BME280;45043;51.068;7.026;2023-01-29T03:28:22;101814.06;;;-4.57;56.91
59272;BME280;45043;51.068;7.026;2023-01-29T03:31:42;101805.00;;;-4.67;56.78
59272;BME280;45043;51.068;7.026;2023-01-29T03:35:04;101805.28;;;-4.73;57.07
59272;BME280;45043;51.068;7.026;2023-01-29T03:38:09;101808.00;;;-4.77;57.23
59272;BME280;45043;51.068;7.026;2023-01-29T03:41:17;101820.13;;;-4.77;57.30
59272;BME280;45043;51.068;7.026;2023-01-29T03:44:37;101819.53;;;-4.84;56.50
59272;BME280;45043;51.068;7.026;2023-01-29T03:48:03;101815.25;;;-4.85;56.62
59272;BME280;45043;51.068;7.026;2023-01-29T03:54:24;101823.75;;;-4.81;56.76
59272;BME280;45043;51.068;7.026;2023-01-29T03:57:41;101840.13;;;-4.81;57.12
59272;BME280;45043;51.068;7.026;2023-01-29T04:01:01;101830.72;;;-4.83;57.52
59272;BME280;45043;51.068;7.026;2023-01-29T04:04:16;101825.63;;;-4.85;57.47
59272;BME280;45043;51.068;7.026;2023-01-29T04:07:20;101814.47;;;-4.87;57.07
59272;BME280;45043;51.068;7.026;2023-01-29T04:10:33;101817.03;;;-4.87;57.26
59272;BME280;45043;51.068;7.026;2023-01-29T04:13:39;101816.28;;;-4.89;57.13
59272;BME280;45043;51.068;7.026;2023-01-29T04:16:45;101807.72;;;-4.91;56.79
59272;BME280;45043;51.068;7.026;2023-01-29T04:19:54;101799.31;;;-4.96;57.23
59272;BME280;45043;51.068;7.026;2023-01-29T04:22:54;101786.50;;;-5.01;57.19
59272;BME280;45043;51.068;7.026;2023-01-29T04:36:34;101775.44;;;-5.04;57.59
59272;BME280;45043;51.068;7.026;2023-01-29T04:39:54;101777.31;;;-5.08;57.51
59272;BME280;45043;51.068;7.026;2023-01-29T04:43:07;101783.53;;;-5.12;57.55
59272;BME280;45043;51.068;7.026;2023-01-29T04:46:18;101781.13;;;-5.16;57.37
59272;BME280;45043;51.068;7.026;2023-01-29T04:49:33;101779.19;;;-5.11;57.28
59272;BME280;45043;51.068;7.026;2023-01-29T04:52:56;101780.75;;;-5.07;57.80
59272;BME280;45043;51.068;7.026;2023-01-29T04:56:05;101778.22;;;-5.09;58.15
59272;BME280;45043;51.068;7.026;2023-01-29T04:59:11;101765.97;;;-5.05;57.74
59272;BME280;45043;51.068;7.026;2023-01-29T05:02:18;101757.38;;;-5.06;57.80
59272;BME280;45043;51.068;7.026;2023-01-29T05:05:21;101757.59;;;-5.12;57.67
59272;BME280;45043;51.068;7.026;2023-01-29T05:08:23;101754.31;;;-5.15;58.11
59272;BME280;45043;51.068;7.026;2023-01-29T05:11:25;101756.91;;;-5.15;58.16
59272;BME280;45043;51.068;7.026;2023-01-29T05:14:26;101760.41;;;-5.16;57.88
59272;BME280;45043;51.068;7.026;2023-01-29T05:17:29;101763.00;;;-5.16;57.72
59272;BME280;45043;51.068;7.026;2023-01-29T05:20:32;101753.75;;;-5.22;57.49
59272;BME280;45043;51.068;7.026;2023-01-29T05:23:34;101746.94;;;-5.25;58.28
59272;BME280;45043;51.068;7.026;2023-01-29T05:26:35;101755.53;;;-5.24;58.13
59272;BME280;45043;51.068;7.026;2023-01-29T05:29:53;101748.88;;;-5.30;58.86
59272;BME280;45043;51.068;7.026;2023-01-29T05:32:54;101741.97;;;-5.31;58.00
59272;BME280;45043;51.068;7.026;2023-01-29T05:35:57;101746.13;;;-5.27;58.75
59272;BME280;45043;51.068;7.026;2023-01-29T05:38:58;101740.94;;;-5.27;57.72
59272;BME280;45043;51.068;7.026;2023-01-29T05:41:58;101724.88;;;-5.35;58.46
59272;BME280;45043;51.068;7.026;2023-01-29T05:44:59;101735.91;;;-5.30;59.22
59272;BME280;45043;51.068;7.026;2023-01-29T05:47:59;101741.03;;;-5.28;58.32
59272;BME280;45043;51.068;7.026;2023-01-29T05:51:00;101741.63;;;-5.21;58.28
59272;BME280;45043;51.068;7.026;2023-01-29T05:54:01;101745.69;;;-5.16;58.32
59272;BME280;45043;51.068;7.026;2023-01-29T05:57:02;101743.81;;;-5.12;58.64
59272;BME280;45043;51.068;7.026;2023-01-29T06:00:03;101744.81;;;-5.15;59.27
59272;BME280;45043;51.068;7.026;2023-01-29T06:03:12;101752.63;;;-5.16;58.81
59272;BME280;45043;51.068;7.026;2023-01-29T06:06:13;101749.28;;;-4.98;60.61
59272;BME280;45043;51.068;7.026;2023-01-29T06:09:13;101752.09;;;-4.05;61.41
59272;BME280;45043;51.068;7.026;2023-01-29T06:12:14;101749.03;;;-3.41;61.82
59272;BME280;45043;51.068;7.026;2023-01-29T06:15:15;101752.44;;;-3.04;61.24
59272;BME280;45043;51.068;7.026;2023-01-29T06:18:15;101756.69;;;-2.68;61.31
59272;BME280;45043;51.068;7.026;2023-01-29T06:21:16;101756.56;;;-2.16;61.00
59272;BME280;45043;51.068;7.026;2023-01-29T06:24:17;101735.41;;;-1.94;58.95
59272;BME280;45043;51.068;7.026;2023-01-29T06:27:17;101749.53;;;-1.98;57.56
59272;BME280;45043;51.068;7.026;2023-01-29T06:30:18;101754.63;;;-2.13;57.38
59272;BME280;45043;51.068;7.026;2023-01-29T06:33:18;101759.47;;;-2.22;56.51
59272;BME280;45043;51.068;7.026;2023-01-29T06:36:18;101775.72;;;-2.50;56.08
59272;BME280;45043;51.068;7.026;2023-01-29T06:39:19;101783.09;;;-2.76;55.58
59272;BME280;45043;51.068;7.026;2023-01-29T06:42:19;101786.38;;;-2.90;55.70
59272;BME280;45043;51.068;7.026;2023-01-29T06:45:26;101798.16;;;-2.83;56.24
59272;BME280;45043;51.068;7.026;2023-01-29T06:48:27;101806.75;;;-2.80;55.81
59272;BME280;45043;51.068;7.026;2023-01-29T06:51:27;101813.22;;;-2.89;55.42
59272;BME280;45043;51.068;7.026;2023-01-29T06:54:28;101805.81;;;-2.97;54.64
59272;BME280;45043;51.068;7.026;2023-01-29T06:57:28;101802.91;;;-3.08;55.35
59272;BME280;45043;51.068;7.026;2023-01-29T07:00:29;101792.44;;;-3.07;54.91
59272;BME280;45043;51.068;7.026;2023-01-29T07:03:29;101789.75;;;-3.05;55.28
59272;BME280;45043;51.068;7.026;2023-01-29T07:06:30;101790.69;;;-3.06;55.21
59272;BME280;45043;51.068;7.026;2023-01-29T07:09:30;101793.88;;;-3.01;54.90
59272;BME280;45043;51.068;7.026;2023-01-29T07:12:31;101794.22;;;-3.07;54.60
59272;BME280;45043;51.068;7.026;2023-01-29T07:15:31;101791.50;;;-3.06;54.72
59272;BME280;45043;51.068;7.026;2023-01-29T07:18:32;101795.72;;;-3.03;54.61
59272;BME280;45043;51.068;7.026;2023-01-29T07:21:32;101779.91;;;-2.98;54.21
59272;BME280;45043;51.068;7.026;2023-01-29T07:24:33;101775.69;;;-3.01;55.04
59272;BME280;45043;51.068;7.026;2023-01-29T07:27:33;101789.00;;;-3.07;55.25
59272;BME280;45043;51.068;7.026;2023-01-29T07:30:34;101793.03;;;-3.01;55.19
59272;BME280;45043;51.068;7.026;2023-01-29T07:33:35;101794.13;;;-2.88;55.14
59272;BME280;45043;51.068;7.026;2023-01-29T07:36:35;101775.09;;;-2.89;55.04
59272;BME280;45043;51.068;7.026;2023-01-29T07:39:36;101781.56;;;-2.97;54.78
59272;BME280;45043;51.068;7.026;2023-01-29T07:42:37;101796.94;;;-2.93;55.37
59272;BME280;45043;51.068;7.026;2023-01-29T07:45:39;101800.78;;;-2.83;55.65
59272;BME280;45043;51.068;7.026;2023-01-29T07:48:40;101794.94;;;-2.53;54.94
59272;BME280;45043;51.068;7.026;2023-01-29T07:51:40;101783.56;;;-2.35;54.28
59272;BME280;45043;51.068;7.026;2023-01-29T07:54:41;101760.69;;;-2.45;54.28
59272;BME280;45043;51.068;7.026;2023-01-29T07:57:42;101772.78;;;-2.44;54.06
59272;BME280;45043;51.068;7.026;2023-01-29T08:00:43;101769.59;;;-2.49;54.22
59272;BME280;45043;51.068;7.026;2023-01-29T08:03:44;101770.28;;;-2.46;54.16
59272;BME280;45043;51.068;7.026;2023-01-29T08:06:45;101772.19;;;-2.49;54.47
59272;BME280;45043;51.068;7.026;2023-01-29T08:09:45;101771.22;;;-2.64;54.49
59272;BME280;45043;51.068;7.026;2023-01-29T08:12:46;101765.97;;;-2.80;54.19
59272;BME280;45043;51.068;7.026;2023-01-29T08:15:46;101773.16;;;-2.85;54.11
59272;BME280;45043;51.068;7.026;2023-01-29T08:18:47;101769.25;;;-3.28;54.82
59272;BME280;45043;51.068;7.026;2023-01-29T08:21:48;101783.75;;;-3.42;55.17
59272;BME280;45043;51.068;7.026;2023-01-29T08:24:48;101773.66;;;-3.67;56.09
59272;BME280;45043;51.068;7.026;2023-01-29T08:27:48;101782.13;;;-3.81;55.85
59272;BME280;45043;51.068;7.026;2023-01-29T08:30:49;101791.38;;;-3.75;56.23
59272;BME280;45043;51.068;7.026;2023-01-29T08:33:49;101793.91;;;-3.73;56.40
59272;BME280;45043;51.068;7.026;2023-01-29T08:36:50;101779.22;;;-3.74;56.09
59272;BME280;45043;51.068;7.026;2023-01-29T08:39:50;101789.94;;;-3.63;55.96
59272;BME280;45043;51.068;7.026;2023-01-29T08:42:51;101784.94;;;-3.66;56.41
59272;BME280;45043;51.068;7.026;2023-01-29T08:45:51;101776.00;;;-3.80;56.44
59272;BME280;45043;51.068;7.026;2023-01-29T08:48:52;101767.53;;;-4.02;57.03
59272;BME280;45043;51.068;7.026;2023-01-29T08:51:53;101773.81;;;-4.08;56.86
59272;BME280;45043;51.068;7.026;2023-01-29T08:54:55;101776.78;;;-4.15;57.69
59272;BME280;45043;51.068;7.026;2023-01-29T08:57:56;101788.06;;;-4.16;58.28
59272;BME280;45043;51.068;7.026;2023-01-29T09:01:06;101777.91;;;-4.02;57.79
59272;BME280;45043;51.068;7.026;2023-01-29T09:04:06;101783.09;;;-4.02;58.17
59272;BME280;45043;51.068;7.026;2023-01-29T09:07:07;101777.44;;;-3.91;57.74
59272;BME280;45043;51.068;7.026;2023-01-29T09:10:08;101779.44;;;-3.60;57.33
59272;BME280;45043;51.068;7.026;2023-01-29T09:13:08;101771.34;;;-2.50;54.81
59272;BME280;45043;51.068;7.026;2023-01-29T09:16:09;101765.59;;;-3.24;56.24
59272;BME280;45043;51.068;7.026;2023-01-29T09:19:10;101771.22;;;-3.51;56.84
59272;BME280;45043;51.068;7.026;2023-01-29T09:22:10;101751.03;;;-3.82;56.66
59272;BME280;45043;51.068;7.026;2023-01-29T09:25:11;101744.72;;;-3.76;57.60
59272;BME280;45043;51.068;7.026;2023-01-29T09:28:12;101740.72;;;-3.84;57.24
59272;BME280;45043;51.068;7.026;2023-01-29T09:31:12;101733.56;;;-3.97;57.26
59272;BME280;45043;51.068;7.026;2023-01-29T09:34:13;101739.75;;;-4.19;57.63
59272;BME280;45043;51.068;7.026;2023-01-29T09:37:13;101735.81;;;-4.28;58.21
59272;BME280;45043;51.068;7.026;2023-01-29T09:40:24;101732.75;;;-4.36;58.13
59272;BME280;45043;51.068;7.026;2023-01-29T09:43:39;101732.97;;;-4.21;58.43
59272;BME280;45043;51.068;7.026;2023-01-29T09:46:47;101738.63;;;-4.13;58.25
59272;BME280;45043;51.068;7.026;2023-01-29T09:50:12;101724.34;;;-4.03;58.44
59272;BME280;45043;51.068;7.026;2023-01-29T09:56:26;101717.59;;;-4.07;58.35
59272;BME280;45043;51.068;7.026;2023-01-29T09:59:30;101712.94;;;-4.00;58.50
59272;BME280;45043;51.068;7.026;2023-01-29T10:13:25;101716.28;;;-3.80;58.36
59272;BME280;45043;51.068;7.026;2023-01-29T10:23:21;101713.91;;;-3.48;58.84
59272;BME280;45043;51.068;7.026;2023-01-29T10:26:26;101715.13;;;-3.38;58.40
59272;BME280;45043;51.068;7.026;2023-01-29T10:29:30;101715.28;;;-3.23;58.09
59272;BME280;45043;51.068;7.026;2023-01-29T10:32:35;101708.88;;;-3.16;58.24
59272;BME280;45043;51.068;7.026;2023-01-29T10:35:47;101713.38;;;-3.20;57.19
59272;BME280;45043;51.068;7.026;2023-01-29T10:38:51;101711.75;;;-3.22;58.04
59272;BME280;45043;51.068;7.026;2023-01-29T10:58:12;101680.13;;;-3.13;57.41
59272;BME280;45043;51.068;7.026;2023-01-29T11:01:17;101677.69;;;-3.16;56.83
59272;BME280;45043;51.068;7.026;2023-01-29T11:04:18;101666.34;;;-3.15;57.02
59272;BME280;45043;51.068;7.026;2023-01-29T11:07:21;101658.88;;;-3.21;57.25
59272;BME280;45043;51.068;7.026;2023-01-29T11:10:23;101646.72;;;-3.21;56.70
59272;BME280;45043;51.068;7.026;2023-01-29T11:13:30;101642.13;;;-3.16;57.07
59272;BME280;45043;51.068;7.026;2023-01-29T11:16:43;101639.78;;;-3.20;57.04
59272;BME280;45043;51.068;7.026;2023-01-29T11:19:48;101634.97;;;-3.28;57.43
59272;BME280;45043;51.068;7.026;2023-01-29T11:22:53;101636.47;;;-3.24;57.16
59272;BME280;45043;51.068;7.026;2023-01-29T11:25:58;101638.22;;;-3.07;56.70
59272;BME280;45043;51.068;7.026;2023-01-29T11:28:59;101636.66;;;-2.94;57.09
59272;BME280;45043;51.068;7.026;2023-01-29T11:32:03;101633.25;;;-2.78;56.45
59272;BME280;45043;51.068;7.026;2023-01-29T11:41:16;101614.63;;;-2.87;57.05
59272;BME280;45043;51.068;7.026;2023-01-29T11:44:40;101614.72;;;-2.88;56.87
59272;BME280;45043;51.068;7.026;2023-01-29T11:47:41;101613.63;;;-2.84;56.76
59272;BME280;45043;51.068;7.026;2023-01-29T11:50:43;101599.59;;;-2.82;56.77
59272;BME280;45043;51.068;7.026;2023-01-29T11:53:58;101591.47;;;-2.75;56.71
59272;BME280;45043;51.068;7.026;2023-01-29T11:57:00;101596.09;;;-2.80;56.78
59272;BME280;45043;51.068;7.026;2023-01-29T12:00:16;101577.88;;;-2.80;56.51
59272;BME280;45043;51.068;7.026;2023-01-29T12:03:39;101575.59;;;-2.87;56.49
59272;BME280;45043;51.068;7.026;2023-01-29T12:06:44;101568.47;;;-2.83;56.93
59272;BME280;45043;51.068;7.026;2023-01-29T12:09:51;101576.19;;;-2.82;57.06
59272;BME280;45043;51.068;7.026;2023-01-29T12:13:03;101567.31;;;-2.77;56.66
59272;BME280;45043;51.068;7.026;2023-01-29T12:16:19;101564.38;;;-2.71;56.55
59272;BME280;45043;51.068;7.026;2023-01-29T12:19:41;101547.50;;;-2.64;56.49
59272;BME280;45043;51.068;7.026;2023-01-29T12:23:10;101550.06;;;-2.63;56.86
59272;BME280;45043;51.068;7.026;2023-01-29T12:26:23;101545.16;;;-2.53;56.73
59272;BME280;45043;51.068;7.026;2023-01-29T12:32:53;101519.69;;;-2.32;56.33
59272;BME280;45043;51.068;7.026;2023-01-29T12:39:23;101496.44;;;-2.05;56.24
59272;BME280;45043;51.068;7.026;2023-01-29T12:42:23;101481.75;;;-2.06;56.14
59272;BME280;45043;51.068;7.026;2023-01-29T12:45:26;101470.78;;;-1.97;55.72
59272;BME280;45043;51.068;7.026;2023-01-29T12:48:31;101463.91;;;-1.98;55.75
59272;BME280;45043;51.068;7.026;2023-01-29T12:51:41;101444.72;;;-2.11;55.81
59272;BME280;45043;51.068;7.026;2023-01-29T12:55:01;101452.75;;;-2.14;55.67
59272;BME280;45043;51.068;7.026;2023-01-29T13:01:29;101448.19;;;-2.11;56.21
59272;BME280;45043;51.068;7.026;2023-01-29T13:04:45;101449.03;;;-2.10;55.62
59272;BME280;45043;51.068;7.026;2023-01-29T13:07:52;101439.91;;;-2.17;55.55
59272;BME280;45043;51.068;7.026;2023-01-29T13:10:57;101437.28;;;-2.17;55.72
59272;BME280;45043;51.068;7.026;2023-01-29T13:17:40;101421.78;;;-2.04;55.71
59272;BME280;45043;51.068;7.026;2023-01-29T13:20:42;101414.59;;;-2.15;55.89
59272;BME280;45043;51.068;7.026;2023-01-29T13:23:47;101400.19;;;-2.21;55.97
59272;BME280;45043;51.068;7.026;2023-01-29T13:26:49;101396.19;;;-2.12;55.62
59272;BME280;45043;51.068;7.026;2023-01-29T13:29:50;101399.47;;;-2.09;55.76
59272;BME280;45043;51.068;7.026;2023-01-29T13:32:52;101406.97;;;-2.04;55.06
59272;BME280;45043;51.068;7.026;2023-01-29T13:35:58;101398.25;;;-2.03;55.55
59272;BME280;45043;51.068;7.026;2023-01-29T13:39:07;101389.16;;;-1.96;55.42
59272;BME280;45043;51.068;7.026;2023-01-29T13:42:21;101383.09;;;-1.96;54.90
59272;BME280;45043;51.068;7.026;2023-01-29T13:48:32;101386.16;;;-1.90;55.13
59272;BME280;45043;51.068;7.026;2023-01-29T13:51:36;101390.44;;;-1.89;55.28
59272;BME280;45043;51.068;7.026;2023-01-29T13:54:36;101391.72;;;-1.81;55.35
59272;BME280;45043;51.068;7.026;2023-01-29T14:03:50;101384.97;;;-1.70;54.77
59272;BME280;45043;51.068;7.026;2023-01-29T14:06:56;101384.03;;;-1.69;54.63
59272;BME280;45043;51.068;7.026;2023-01-29T14:10:11;101380.78;;;-1.72;54.79
59272;BME280;45043;51.068;7.026;2023-01-29T14:19:23;101381.13;;;-1.64;55.10
59272;BME280;45043;51.068;7.026;2023-01-29T14:22:25;101384.28;;;-1.59;54.74
59272;BME280;45043;51.068;7.026;2023-01-29T14:25:33;101386.69;;;-1.56;54.81
59272;BME280;45043;51.068;7.026;2023-01-29T14:28:36;101376.47;;;-1.59;54.90
59272;BME280;45043;51.068;7.026;2023-01-29T14:31:49;101379.63;;;-1.54;54.67
59272;BME280;45043;51.068;7.026;2023-01-29T14:34:59;101379.03;;;-1.45;54.80
59272;BME280;45043;51.068;7.026;2023-01-29T14:38:03;101372.81;;;-1.42;54.90
59272;BME280;45043;51.068;7.026;2023-01-29T14:41:25;101379.25;;;-1.48;54.71
59272;BME280;45043;51.068;7.026;2023-01-29T14:50:49;101370.75;;;-1.37;54.72
59272;BME280;45043;51.068;7.026;2023-01-29T14:53:57;101378.47;;;-1.36;54.78
59272;BME280;45043;51.068;7.026;2023-01-29T14:57:01;101374.28;;;-1.38;54.77
59272;BME280;45043;51.068;7.026;2023-01-29T15:00:14;101374.94;;;-1.34;54.40
59272;BME280;45043;51.068;7.026;2023-01-29T15:03:45;101379.59;;;-1.25;54.41
59272;BME280;45043;51.068;7.026;2023-01-29T15:07:02;101385.13;;;-1.17;54.30
59272;BME280;45043;51.068;7.026;2023-01-29T15:13:25;101375.69;;;-1.05;53.73
59272;BME280;45043;51.068;7.026;2023-01-29T15:16:38;101364.88;;;-0.99;53.90
59272;BME280;45043;51.068;7.026;2023-01-29T15:19:46;101362.91;;;-0.96;54.09
59272;BME280;45043;51.068;7.026;2023-01-29T15:22:50;101368.19;;;-0.97;53.66
59272;BME280;45043;51.068;7.026;2023-01-29T15:25:53;101364.00;;;-1.00;54.05
59272;BME280;45043;51.068;7.026;2023-01-29T15:28:58;101364.94;;;-1.01;53.91
59272;BME280;45043;51.068;7.026;2023-01-29T15:32:00;101371.31;;;-1.05;54.36
59272;BME280;45043;51.068;7.026;2023-01-29T15:35:06;101368.88;;;-1.08;53.93
59272;BME280;45043;51.068;7.026;2023-01-29T15:41:19;101356.78;;;-1.09;54.06
59272;BME280;45043;51.068;7.026;2023-01-29T15:44:21;101361.91;;;-1.07;53.98
59272;BME280;45043;51.068;7.026;2023-01-29T15:47:27;101358.56;;;-1.09;54.24
59272;BME280;45043;51.068;7.026;2023-01-29T15:50:32;101359.22;;;-1.06;54.02
59272;BME280;45043;51.068;7.026;2023-01-29T15:53:56;101353.06;;;-1.05;53.93
59272;BME280;45043;51.068;7.026;2023-01-29T15:56:58;101340.19;;;-1.08;54.20
59272;BME280;45043;51.068;7.026;2023-01-29T16:00:00;101336.69;;;-1.07;53.93
59272;BME280;45043;51.068;7.026;2023-01-29T16:03:12;101336.75;;;-1.08;54.12
59272;BME280;45043;51.068;7.026;2023-01-29T16:06:13;101340.41;;;-1.11;54.27
59272;BME280;45043;51.068;7.026;2023-01-29T16:09:17;101345.13;;;-1.03;54.41
59272;BME280;45043;51.068;7.026;2023-01-29T16:12:20;101344.09;;;-1.01;53.98
59272;BME280;45043;51.068;7.026;2023-01-29T16:15:31;101328.84;;;-1.07;54.40
59272;BME280;45043;51.068;7.026;2023-01-29T16:18:37;101330.53;;;-1.06;54.18
59272;BME280;45043;51.068;7.026;2023-01-29T16:21:40;101335.63;;;-1.04;54.32
59272;BME280;45043;51.068;7.026;2023-01-29T16:24:44;101341.59;;;-1.02;54.34
59272;BME280;45043;51.068;7.026;2023-01-29T16:27:46;101329.19;;;-0.99;54.42
59272;BME280;45043;51.068;7.026;2023-01-29T16:30:54;101328.34;;;-0.99;54.34
59272;BME280;45043;51.068;7.026;2023-01-29T16:33:56;101331.47;;;-1.07;54.58
59272;BME280;45043;51.068;7.026;2023-01-29T16:37:00;101322.16;;;-1.11;54.63
59272;BME280;45043;51.068;7.026;2023-01-29T16:40:24;101319.84;;;-1.16;54.70
59272;BME280;45043;51.068;7.026;2023-01-29T16:52:37;101312.50;;;-1.36;55.76
59272;BME280;45043;51.068;7.026;2023-01-29T16:55:42;101310.78;;;-1.37;55.97
59272;BME280;45043;51.068;7.026;2023-01-29T16:58:51;101313.31;;;-1.36;56.07
59272;BME280;45043;51.068;7.026;2023-01-29T17:01:55;101312.28;;;-1.33;56.17
59272;BME280;45043;51.068;7.026;2023-01-29T17:04:59;101303.63;;;-1.33;56.25
59272;BME280;45043;51.068;7.026;2023-01-29T17:08:02;101306.97;;;-1.31;56.10
59272;BME280;45043;51.068;7.026;2023-01-29T17:11:03;101302.78;;;-1.34;56.41
59272;BME280;45043;51.068;7.026;2023-01-29T17:14:07;101302.78;;;-1.34;56.46
59272;BME280;45043;51.068;7.026;2023-01-29T17:17:15;101288.72;;;-1.31;56.43
59272;BME280;45043;51.068;7.026;2023-01-29T17:20:18;101289.66;;;-1.32;56.48
59272;BME280;45043;51.068;7.026;2023-01-29T17:23:18;101284.44;;;-1.32;56.44
59272;BME280;45043;51.068;7.026;2023-01-29T17:26:21;101281.75;;;-1.31;56.39
59272;BME280;45043;51.068;7.026;2023-01-29T17:29:27;101277.78;;;-1.37;56.67
59272;BME280;45043;51.068;7.026;2023-01-29T17:32:29;101264.94;;;-1.40;56.74
59272;BME280;45043;51.068;7.026;2023-01-29T17:35:30;101265.13;;;-1.43;56.85
59272;BME280;45043;51.068;7.026;2023-01-29T17:38:31;101262.72;;;-1.46;57.09
59272;BME280;45043;51.068;7.026;2023-01-29T17:41:32;101261.25;;;-1.50;57.17
59272;BME280;45043;51.068;7.026;2023-01-29T17:44:32;101265.81;;;-1.53;57.20
59272;BME280;45043;51.068;7.026;2023-01-29T17:47:33;101257.16;;;-1.54;57.03
59272;BME280;45043;51.068;7.026;2023-01-29T17:50:34;101261.25;;;-1.50;57.35
59272;BME280;45043;51.068;7.026;2023-01-29T17:53:36;101262.00;;;-1.48;56.90
59272;BME280;45043;51.068;7.026;2023-01-29T17:56:37;101255.91;;;-1.48;57.40
59272;BME280;45043;51.068;7.026;2023-01-29T17:59:37;101253.13;;;-1.45;57.32
59272;BME280;45043;51.068;7.026;2023-01-29T18:02:38;101267.72;;;-1.43;57.25
59272;BME280;45043;51.068;7.026;2023-01-29T18:05:39;101266.25;;;-1.47;57.35